< < Back
Terminal Aerodrome Forecast


Current Version              Previous Versions:   1  2  3  4  5  6  7  8  9  

Terminal Aerodrome Forecast

371
FTUS44 KMRX 232106 AAA
TAFCHA
TAF AMD
KCHA 232106Z 2321/2418 03006KT 2SM -RA BR BKN007 WS020/15050KT
      TEMPO 2321/2323 1SM +RA OVC003
     FM240000 08009KT P6SM OVC010
     FM240300 20005KT 2SM BR BKN005
     FM241300 21008KT 4SM BR BKN015
     FM241500 23012G22KT P6SM BKN040=



Latest METAR

159
SAUS80 KWBC 240500
MTRCHA
METAR KCHA 240453Z 18011G18KT 10SM FEW020 OVC030 16/13 A2964 RMK AO2
SLP035 LAST T01610133 401610094


USA.gov is the U.S. government's official web portal to all federal, state and local government web resources and services.